sensor_id;sensor_type;location;lat;lon;timestamp;P1;durP1;ratioP1;P2;durP2;ratioP2
69317;SDS011;56457;52.190;4.440;2022-07-22T00:00:19;22.98;;;3.65;;
69317;SDS011;56457;52.190;4.440;2022-07-22T00:01:20;24.83;;;3.00;;
69317;SDS011;56457;52.190;4.440;2022-07-22T00:02:20;31.80;;;4.18;;
69317;SDS011;56457;52.190;4.440;2022-07-22T00:03:20;24.60;;;3.70;;
69317;SDS011;56457;52.190;4.440;2022-07-22T00:04:21;20.13;;;3.38;;
69317;SDS011;56457;52.190;4.440;2022-07-22T00:05:21;22.60;;;3.42;;
69317;SDS011;56457;52.190;4.440;2022-07-22T00:06:22;26.45;;;3.25;;
69317;SDS011;56457;52.190;4.440;2022-07-22T00:07:22;24.42;;;3.70;;
69317;SDS011;56457;52.190;4.440;2022-07-22T00:08:23;13.60;;;2.37;;
69317;SDS011;56457;52.190;4.440;2022-07-22T00:09:23;16.80;;;3.00;;
69317;SDS011;56457;52.190;4.440;2022-07-22T00:10:23;18.83;;;3.42;;
69317;SDS011;56457;52.190;4.440;2022-07-22T00:11:24;23.13;;;3.00;;
69317;SDS011;56457;52.190;4.440;2022-07-22T00:12:24;20.85;;;3.13;;
69317;SDS011;56457;52.190;4.440;2022-07-22T00:13:25;22.50;;;3.58;;
69317;SDS011;56457;52.190;4.440;2022-07-22T00:14:25;18.75;;;2.95;;
69317;SDS011;56457;52.190;4.440;2022-07-22T00:15:25;17.85;;;3.35;;
69317;SDS011;56457;52.190;4.440;2022-07-22T00:16:26;19.80;;;2.83;;
69317;SDS011;56457;52.190;4.440;2022-07-22T00:17:26;14.95;;;2.65;;
69317;SDS011;56457;52.190;4.440;2022-07-22T00:18:27;20.23;;;2.60;;
69317;SDS011;56457;52.190;4.440;2022-07-22T00:19:28;13.50;;;2.63;;
69317;SDS011;56457;52.190;4.440;2022-07-22T00:20:28;19.63;;;3.20;;
69317;SDS011;56457;52.190;4.440;2022-07-22T00:21:29;22.10;;;2.97;;
69317;SDS011;56457;52.190;4.440;2022-07-22T00:22:29;14.57;;;2.53;;
69317;SDS011;56457;52.190;4.440;2022-07-22T00:23:30;21.00;;;3.25;;
69317;SDS011;56457;52.190;4.440;2022-07-22T00:24:30;19.23;;;3.20;;
69317;SDS011;56457;52.190;4.440;2022-07-22T00:25:31;16.85;;;2.47;;
69317;SDS011;56457;52.190;4.440;2022-07-22T00:26:31;16.45;;;2.53;;
69317;SDS011;56457;52.190;4.440;2022-07-22T00:27:31;15.45;;;2.63;;
69317;SDS011;56457;52.190;4.440;2022-07-22T00:28:32;12.10;;;2.77;;
69317;SDS011;56457;52.190;4.440;2022-07-22T00:29:32;15.20;;;2.73;;
69317;SDS011;56457;52.190;4.440;2022-07-22T00:30:33;15.90;;;2.60;;
69317;SDS011;56457;52.190;4.440;2022-07-22T00:31:33;14.63;;;2.65;;
69317;SDS011;56457;52.190;4.440;2022-07-22T00:32:34;11.55;;;2.72;;
69317;SDS011;56457;52.190;4.440;2022-07-22T00:33:34;14.50;;;3.00;;
69317;SDS011;56457;52.190;4.440;2022-07-22T00:34:34;14.50;;;3.03;;
69317;SDS011;56457;52.190;4.440;2022-07-22T00:35:35;12.90;;;2.33;;
69317;SDS011;56457;52.190;4.440;2022-07-22T00:36:35;18.50;;;2.97;;
69317;SDS011;56457;52.190;4.440;2022-07-22T00:37:36;12.27;;;2.75;;
69317;SDS011;56457;52.190;4.440;2022-07-22T00:38:37;12.20;;;2.40;;
69317;SDS011;56457;52.190;4.440;2022-07-22T00:39:38;8.38;;;1.90;;
69317;SDS011;56457;52.190;4.440;2022-07-22T00:40:38;9.07;;;1.83;;
69317;SDS011;56457;52.190;4.440;2022-07-22T00:41:39;12.10;;;2.03;;
69317;SDS011;56457;52.190;4.440;2022-07-22T00:42:39;21.27;;;3.17;;
69317;SDS011;56457;52.190;4.440;2022-07-22T00:45:13;17.65;;;2.28;;
69317;SDS011;56457;52.190;4.440;2022-07-22T00:46:13;10.23;;;1.90;;
69317;SDS011;56457;52.190;4.440;2022-07-22T00:47:13;12.10;;;2.33;;
69317;SDS011;56457;52.190;4.440;2022-07-22T00:48:14;15.07;;;2.83;;
69317;SDS011;56457;52.190;4.440;2022-07-22T00:49:14;14.00;;;2.40;;
69317;SDS011;56457;52.190;4.440;2022-07-22T00:50:15;16.57;;;2.60;;
69317;SDS011;56457;52.190;4.440;2022-07-22T00:51:17;13.40;;;2.88;;
69317;SDS011;56457;52.190;4.440;2022-07-22T00:52:19;16.80;;;2.50;;
69317;SDS011;56457;52.190;4.440;2022-07-22T00:53:20;18.30;;;3.03;;
69317;SDS011;56457;52.190;4.440;2022-07-22T00:54:20;18.20;;;2.83;;
69317;SDS011;56457;52.190;4.440;2022-07-22T00:55:20;16.58;;;2.70;;
69317;SDS011;56457;52.190;4.440;2022-07-22T00:56:21;19.02;;;3.15;;
69317;SDS011;56457;52.190;4.440;2022-07-22T00:57:21;13.05;;;2.15;;
69317;SDS011;56457;52.190;4.440;2022-07-22T00:58:22;13.95;;;2.67;;
69317;SDS011;56457;52.190;4.440;2022-07-22T00:59:23;24.52;;;2.97;;
69317;SDS011;56457;52.190;4.440;2022-07-22T01:00:23;16.98;;;2.90;;
69317;SDS011;56457;52.190;4.440;2022-07-22T01:01:24;13.60;;;1.90;;
69317;SDS011;56457;52.190;4.440;2022-07-22T01:02:24;12.82;;;2.55;;
69317;SDS011;56457;52.190;4.440;2022-07-22T01:03:25;11.05;;;2.53;;
69317;SDS011;56457;52.190;4.440;2022-07-22T01:04:25;11.73;;;2.47;;
69317;SDS011;56457;52.190;4.440;2022-07-22T01:05:26;13.85;;;2.25;;
69317;SDS011;56457;52.190;4.440;2022-07-22T01:06:27;16.33;;;2.72;;
69317;SDS011;56457;52.190;4.440;2022-07-22T01:07:28;18.92;;;2.60;;
69317;SDS011;56457;52.190;4.440;2022-07-22T01:08:29;17.87;;;2.87;;
69317;SDS011;56457;52.190;4.440;2022-07-22T01:09:29;14.85;;;2.42;;
69317;SDS011;56457;52.190;4.440;2022-07-22T01:10:30;11.88;;;2.40;;
69317;SDS011;56457;52.190;4.440;2022-07-22T01:11:30;17.48;;;2.47;;
69317;SDS011;56457;52.190;4.440;2022-07-22T01:12:31;13.15;;;2.50;;
69317;SDS011;56457;52.190;4.440;2022-07-22T01:13:32;15.93;;;2.50;;
69317;SDS011;56457;52.190;4.440;2022-07-22T01:14:32;18.48;;;3.25;;
69317;SDS011;56457;52.190;4.440;2022-07-22T01:15:32;16.48;;;2.83;;
69317;SDS011;56457;52.190;4.440;2022-07-22T01:16:34;13.48;;;2.25;;
69317;SDS011;56457;52.190;4.440;2022-07-22T01:17:34;20.42;;;3.30;;
69317;SDS011;56457;52.190;4.440;2022-07-22T01:18:35;16.52;;;2.33;;
69317;SDS011;56457;52.190;4.440;2022-07-22T01:19:37;20.05;;;3.25;;
69317;SDS011;56457;52.190;4.440;2022-07-22T01:20:37;13.82;;;2.53;;
69317;SDS011;56457;52.190;4.440;2022-07-22T01:21:38;18.65;;;2.65;;
69317;SDS011;56457;52.190;4.440;2022-07-22T01:26:46;16.73;;;2.63;;
69317;SDS011;56457;52.190;4.440;2022-07-22T01:27:47;17.50;;;3.25;;
69317;SDS011;56457;52.190;4.440;2022-07-22T01:28:47;14.45;;;2.33;;
69317;SDS011;56457;52.190;4.440;2022-07-22T01:29:48;18.83;;;2.90;;
69317;SDS011;56457;52.190;4.440;2022-07-22T01:30:49;27.25;;;3.55;;
69317;SDS011;56457;52.190;4.440;2022-07-22T01:31:50;13.63;;;2.28;;
69317;SDS011;56457;52.190;4.440;2022-07-22T01:32:51;18.67;;;2.45;;
69317;SDS011;56457;52.190;4.440;2022-07-22T01:33:51;17.08;;;3.17;;
69317;SDS011;56457;52.190;4.440;2022-07-22T01:34:52;14.07;;;2.63;;
69317;SDS011;56457;52.190;4.440;2022-07-22T01:35:52;13.68;;;2.80;;
69317;SDS011;56457;52.190;4.440;2022-07-22T01:36:53;15.23;;;2.80;;
69317;SDS011;56457;52.190;4.440;2022-07-22T01:37:53;23.75;;;3.97;;
69317;SDS011;56457;52.190;4.440;2022-07-22T01:38:54;15.30;;;2.55;;
69317;SDS011;56457;52.190;4.440;2022-07-22T01:39:54;16.17;;;2.92;;
69317;SDS011;56457;52.190;4.440;2022-07-22T01:40:55;17.13;;;3.00;;
69317;SDS011;56457;52.190;4.440;2022-07-22T01:41:55;17.52;;;3.05;;
69317;SDS011;56457;52.190;4.440;2022-07-22T01:42:55;12.85;;;2.05;;
69317;SDS011;56457;52.190;4.440;2022-07-22T01:43:56;14.60;;;2.43;;
69317;SDS011;56457;52.190;4.440;2022-07-22T01:44:56;14.47;;;2.27;;
69317;SDS011;56457;52.190;4.440;2022-07-22T01:45:57;15.35;;;2.72;;
69317;SDS011;56457;52.190;4.440;2022-07-22T01:46:58;8.13;;;1.70;;
69317;SDS011;56457;52.190;4.440;2022-07-22T01:47:59;10.13;;;2.20;;
69317;SDS011;56457;52.190;4.440;2022-07-22T01:48:59;15.05;;;2.33;;
69317;SDS011;56457;52.190;4.440;2022-07-22T01:50:00;12.73;;;2.15;;
69317;SDS011;56457;52.190;4.440;2022-07-22T01:51:00;17.17;;;2.35;;
69317;SDS011;56457;52.190;4.440;2022-07-22T01:52:02;18.65;;;2.67;;
69317;SDS011;56457;52.190;4.440;2022-07-22T01:53:03;17.05;;;2.65;;
69317;SDS011;56457;52.190;4.440;2022-07-22T01:54:04;9.53;;;1.87;;
69317;SDS011;56457;52.190;4.440;2022-07-22T01:55:07;12.63;;;2.03;;
69317;SDS011;56457;52.190;4.440;2022-07-22T01:56:08;13.10;;;1.95;;
69317;SDS011;56457;52.190;4.440;2022-07-22T01:57:09;18.92;;;2.92;;
69317;SDS011;56457;52.190;4.440;2022-07-22T01:58:09;12.90;;;2.95;;
69317;SDS011;56457;52.190;4.440;2022-07-22T01:59:10;14.82;;;2.30;;
69317;SDS011;56457;52.190;4.440;2022-07-22T02:00:10;24.63;;;2.73;;
69317;SDS011;56457;52.190;4.440;2022-07-22T02:01:11;18.10;;;2.60;;
69317;SDS011;56457;52.190;4.440;2022-07-22T02:02:12;21.83;;;2.67;;
69317;SDS011;56457;52.190;4.440;2022-07-22T02:03:12;15.65;;;2.25;;
69317;SDS011;56457;52.190;4.440;2022-07-22T02:04:13;19.08;;;2.53;;
69317;SDS011;56457;52.190;4.440;2022-07-22T02:05:14;22.90;;;2.75;;
69317;SDS011;56457;52.190;4.440;2022-07-22T02:06:15;14.25;;;2.38;;
69317;SDS011;56457;52.190;4.440;2022-07-22T02:07:15;17.67;;;3.10;;
69317;SDS011;56457;52.190;4.440;2022-07-22T02:08:16;23.43;;;2.80;;
69317;SDS011;56457;52.190;4.440;2022-07-22T02:09:16;14.30;;;2.35;;
69317;SDS011;56457;52.190;4.440;2022-07-22T02:10:17;27.03;;;2.97;;
69317;SDS011;56457;52.190;4.440;2022-07-22T02:12:18;13.50;;;2.65;;
69317;SDS011;56457;52.190;4.440;2022-07-22T02:13:19;18.55;;;2.45;;
69317;SDS011;56457;52.190;4.440;2022-07-22T02:14:20;14.07;;;2.75;;
69317;SDS011;56457;52.190;4.440;2022-07-22T02:15:21;13.55;;;2.50;;
69317;SDS011;56457;52.190;4.440;2022-07-22T02:16:21;14.45;;;2.15;;
69317;SDS011;56457;52.190;4.440;2022-07-22T02:17:22;24.83;;;2.63;;
69317;SDS011;56457;52.190;4.440;2022-07-22T02:18:23;14.38;;;2.58;;
69317;SDS011;56457;52.190;4.440;2022-07-22T02:19:26;11.18;;;2.85;;
69317;SDS011;56457;52.190;4.440;2022-07-22T02:20:26;13.20;;;2.53;;
69317;SDS011;56457;52.190;4.440;2022-07-22T02:21:26;13.73;;;2.50;;
69317;SDS011;56457;52.190;4.440;2022-07-22T02:22:27;14.40;;;2.55;;
69317;SDS011;56457;52.190;4.440;2022-07-22T02:23:27;10.93;;;2.00;;
69317;SDS011;56457;52.190;4.440;2022-07-22T02:24:28;9.90;;;1.90;;
69317;SDS011;56457;52.190;4.440;2022-07-22T02:25:29;13.50;;;2.13;;
69317;SDS011;56457;52.190;4.440;2022-07-22T02:26:29;14.18;;;2.38;;
69317;SDS011;56457;52.190;4.440;2022-07-22T02:27:30;13.88;;;2.03;;
69317;SDS011;56457;52.190;4.440;2022-07-22T02:28:30;9.50;;;2.27;;
69317;SDS011;56457;52.190;4.440;2022-07-22T02:29:31;14.68;;;1.90;;
69317;SDS011;56457;52.190;4.440;2022-07-22T02:30:33;10.10;;;1.77;;
69317;SDS011;56457;52.190;4.440;2022-07-22T02:31:33;15.30;;;2.58;;
69317;SDS011;56457;52.190;4.440;2022-07-22T02:32:34;15.15;;;2.10;;
69317;SDS011;56457;52.190;4.440;2022-07-22T02:33:35;13.00;;;2.13;;
69317;SDS011;56457;52.190;4.440;2022-07-22T02:34:35;18.73;;;2.50;;
69317;SDS011;56457;52.190;4.440;2022-07-22T02:35:36;11.40;;;2.17;;
69317;SDS011;56457;52.190;4.440;2022-07-22T02:36:36;16.75;;;2.45;;
69317;SDS011;56457;52.190;4.440;2022-07-22T02:37:36;12.48;;;2.70;;
69317;SDS011;56457;52.190;4.440;2022-07-22T02:38:37;16.75;;;2.63;;
69317;SDS011;56457;52.190;4.440;2022-07-22T02:39:38;10.70;;;2.05;;
69317;SDS011;56457;52.190;4.440;2022-07-22T02:40:38;20.90;;;2.70;;
69317;SDS011;56457;52.190;4.440;2022-07-22T02:41:39;17.17;;;2.40;;
69317;SDS011;56457;52.190;4.440;2022-07-22T02:42:39;13.23;;;2.38;;
69317;SDS011;56457;52.190;4.440;2022-07-22T02:43:39;13.57;;;2.40;;
69317;SDS011;56457;52.190;4.440;2022-07-22T02:44:40;15.70;;;3.05;;
69317;SDS011;56457;52.190;4.440;2022-07-22T02:45:40;20.13;;;2.45;;
69317;SDS011;56457;52.190;4.440;2022-07-22T02:46:41;10.33;;;2.23;;
69317;SDS011;56457;52.190;4.440;2022-07-22T02:47:47;6.88;;;1.70;;
69317;SDS011;56457;52.190;4.440;2022-07-22T02:48:52;13.98;;;2.35;;
69317;SDS011;56457;52.190;4.440;2022-07-22T02:49:53;8.83;;;1.70;;
69317;SDS011;56457;52.190;4.440;2022-07-22T02:50:53;14.80;;;2.58;;
69317;SDS011;56457;52.190;4.440;2022-07-22T02:51:54;17.05;;;2.97;;
69317;SDS011;56457;52.190;4.440;2022-07-22T02:52:54;15.10;;;2.13;;
69317;SDS011;56457;52.190;4.440;2022-07-22T02:53:55;11.07;;;1.92;;
69317;SDS011;56457;52.190;4.440;2022-07-22T02:54:55;15.68;;;2.53;;
69317;SDS011;56457;52.190;4.440;2022-07-22T02:55:55;11.50;;;2.17;;
69317;SDS011;56457;52.190;4.440;2022-07-22T02:56:56;7.70;;;1.75;;
69317;SDS011;56457;52.190;4.440;2022-07-22T02:57:56;12.90;;;2.37;;
69317;SDS011;56457;52.190;4.440;2022-07-22T02:58:56;10.65;;;2.08;;
69317;SDS011;56457;52.190;4.440;2022-07-22T02:59:57;7.78;;;1.58;;
69317;SDS011;56457;52.190;4.440;2022-07-22T03:00:57;12.02;;;1.80;;
69317;SDS011;56457;52.190;4.440;2022-07-22T03:01:58;9.20;;;2.30;;
69317;SDS011;56457;52.190;4.440;2022-07-22T03:02:58;11.40;;;1.80;;
69317;SDS011;56457;52.190;4.440;2022-07-22T03:03:59;9.52;;;1.92;;
69317;SDS011;56457;52.190;4.440;2022-07-22T03:04:59;9.32;;;1.50;;
69317;SDS011;56457;52.190;4.440;2022-07-22T03:05:59;7.57;;;1.93;;
69317;SDS011;56457;52.190;4.440;2022-07-22T03:07:00;8.60;;;1.55;;
69317;SDS011;56457;52.190;4.440;2022-07-22T03:08:00;8.93;;;1.80;;
69317;SDS011;56457;52.190;4.440;2022-07-22T03:09:01;12.57;;;1.80;;
69317;SDS011;56457;52.190;4.440;2022-07-22T03:10:02;8.25;;;2.13;;
69317;SDS011;56457;52.190;4.440;2022-07-22T03:11:03;9.38;;;1.73;;
69317;SDS011;56457;52.190;4.440;2022-07-22T03:12:04;10.00;;;2.15;;
69317;SDS011;56457;52.190;4.440;2022-07-22T03:13:05;9.30;;;1.70;;
69317;SDS011;56457;52.190;4.440;2022-07-22T03:14:05;6.90;;;1.17;;
69317;SDS011;56457;52.190;4.440;2022-07-22T03:15:06;10.43;;;1.88;;
69317;SDS011;56457;52.190;4.440;2022-07-22T03:16:07;10.05;;;1.90;;
69317;SDS011;56457;52.190;4.440;2022-07-22T03:17:07;6.80;;;1.35;;
69317;SDS011;56457;52.190;4.440;2022-07-22T03:18:07;8.27;;;1.60;;
69317;SDS011;56457;52.190;4.440;2022-07-22T03:19:08;14.50;;;2.27;;
69317;SDS011;56457;52.190;4.440;2022-07-22T03:20:09;11.63;;;1.80;;
69317;SDS011;56457;52.190;4.440;2022-07-22T03:21:10;12.80;;;1.75;;
69317;SDS011;56457;52.190;4.440;2022-07-22T03:22:10;9.83;;;1.67;;
69317;SDS011;56457;52.190;4.440;2022-07-22T03:23:11;8.18;;;1.55;;
69317;SDS011;56457;52.190;4.440;2022-07-22T03:24:11;7.43;;;1.98;;
69317;SDS011;56457;52.190;4.440;2022-07-22T03:25:12;17.67;;;2.20;;
69317;SDS011;56457;52.190;4.440;2022-07-22T03:26:12;12.87;;;1.60;;
69317;SDS011;56457;52.190;4.440;2022-07-22T03:27:13;12.65;;;1.80;;
69317;SDS011;56457;52.190;4.440;2022-07-22T03:28:13;9.10;;;1.42;;
69317;SDS011;56457;52.190;4.440;2022-07-22T03:29:14;9.90;;;1.40;;
69317;SDS011;56457;52.190;4.440;2022-07-22T03:30:14;10.32;;;1.75;;
69317;SDS011;56457;52.190;4.440;2022-07-22T03:31:14;12.48;;;1.80;;
69317;SDS011;56457;52.190;4.440;2022-07-22T03:32:15;13.43;;;2.15;;
69317;SDS011;56457;52.190;4.440;2022-07-22T03:33:15;12.07;;;1.77;;
69317;SDS011;56457;52.190;4.440;2022-07-22T03:34:16;6.73;;;1.77;;
69317;SDS011;56457;52.190;4.440;2022-07-22T03:35:16;9.25;;;1.50;;
69317;SDS011;56457;52.190;4.440;2022-07-22T03:36:17;8.98;;;1.58;;
69317;SDS011;56457;52.190;4.440;2022-07-22T03:37:17;11.80;;;1.95;;
69317;SDS011;56457;52.190;4.440;2022-07-22T03:38:18;7.32;;;1.30;;
69317;SDS011;56457;52.190;4.440;2022-07-22T03:39:18;8.98;;;1.23;;
69317;SDS011;56457;52.190;4.440;2022-07-22T03:40:18;7.05;;;1.20;;
69317;SDS011;56457;52.190;4.440;2022-07-22T03:41:19;12.63;;;1.73;;
69317;SDS011;56457;52.190;4.440;2022-07-22T03:42:19;10.95;;;1.60;;
69317;SDS011;56457;52.190;4.440;2022-07-22T03:43:20;10.20;;;2.00;;
69317;SDS011;56457;52.190;4.440;2022-07-22T03:44:20;8.67;;;1.90;;
69317;SDS011;56457;52.190;4.440;2022-07-22T03:45:20;12.10;;;2.20;;
69317;SDS011;56457;52.190;4.440;2022-07-22T03:46:21;12.90;;;2.20;;
69317;SDS011;56457;52.190;4.440;2022-07-22T03:47:21;4.53;;;1.40;;
69317;SDS011;56457;52.190;4.440;2022-07-22T03:48:22;7.32;;;1.58;;
69317;SDS011;56457;52.190;4.440;2022-07-22T03:49:23;6.40;;;1.47;;
69317;SDS011;56457;52.190;4.440;2022-07-22T03:50:23;12.45;;;1.52;;
69317;SDS011;56457;52.190;4.440;2022-07-22T03:51:24;6.95;;;1.42;;
69317;SDS011;56457;52.190;4.440;2022-07-22T03:52:25;7.67;;;1.63;;
69317;SDS011;56457;52.190;4.440;2022-07-22T03:53:25;10.23;;;1.70;;
69317;SDS011;56457;52.190;4.440;2022-07-22T03:54:26;11.95;;;1.80;;
69317;SDS011;56457;52.190;4.440;2022-07-22T03:55:26;6.72;;;1.70;;
69317;SDS011;56457;52.190;4.440;2022-07-22T03:56:26;10.07;;;2.47;;
69317;SDS011;56457;52.190;4.440;2022-07-22T03:57:27;8.60;;;1.67;;
69317;SDS011;56457;52.190;4.440;2022-07-22T03:58:29;4.88;;;1.48;;
69317;SDS011;56457;52.190;4.440;2022-07-22T03:59:29;8.27;;;1.65;;
69317;SDS011;56457;52.190;4.440;2022-07-22T04:00:31;8.10;;;1.65;;
69317;SDS011;56457;52.190;4.440;2022-07-22T04:01:31;20.48;;;1.83;;
69317;SDS011;56457;52.190;4.440;2022-07-22T04:02:32;8.30;;;1.60;;
69317;SDS011;56457;52.190;4.440;2022-07-22T04:03:32;9.63;;;1.90;;
69317;SDS011;56457;52.190;4.440;2022-07-22T04:04:32;8.38;;;1.45;;
69317;SDS011;56457;52.190;4.440;2022-07-22T04:05:33;7.03;;;1.77;;
69317;SDS011;56457;52.190;4.440;2022-07-22T04:06:33;10.93;;;1.80;;
69317;SDS011;56457;52.190;4.440;2022-07-22T04:07:34;7.93;;;1.70;;
69317;SDS011;56457;52.190;4.440;2022-07-22T04:08:34;7.18;;;1.60;;
69317;SDS011;56457;52.190;4.440;2022-07-22T04:09:35;15.80;;;1.90;;
69317;SDS011;56457;52.190;4.440;2022-07-22T04:10:35;7.10;;;1.20;;
69317;SDS011;56457;52.190;4.440;2022-07-22T04:11:36;7.75;;;1.42;;
69317;SDS011;56457;52.190;4.440;2022-07-22T04:12:37;9.93;;;1.95;;
69317;SDS011;56457;52.190;4.440;2022-07-22T04:13:39;11.63;;;1.38;;
69317;SDS011;56457;52.190;4.440;2022-07-22T04:14:39;9.83;;;1.50;;
69317;SDS011;56457;52.190;4.440;2022-07-22T04:15:39;13.20;;;1.63;;
69317;SDS011;56457;52.190;4.440;2022-07-22T04:16:40;10.43;;;1.85;;
69317;SDS011;56457;52.190;4.440;2022-07-22T04:17:40;20.70;;;1.77;;
69317;SDS011;56457;52.190;4.440;2022-07-22T04:18:41;7.63;;;1.33;;
69317;SDS011;56457;52.190;4.440;2022-07-22T04:19:41;9.80;;;1.73;;
69317;SDS011;56457;52.190;4.440;2022-07-22T04:20:41;8.00;;;1.93;;
69317;SDS011;56457;52.190;4.440;2022-07-22T04:21:42;5.77;;;1.27;;
69317;SDS011;56457;52.190;4.440;2022-07-22T04:22:42;5.70;;;1.50;;
69317;SDS011;56457;52.190;4.440;2022-07-22T04:23:43;6.83;;;2.07;;
69317;SDS011;56457;52.190;4.440;2022-07-22T04:24:43;8.60;;;1.67;;
69317;SDS011;56457;52.190;4.440;2022-07-22T04:25:43;10.40;;;2.20;;
69317;SDS011;56457;52.190;4.440;2022-07-22T04:26:45;14.85;;;1.95;;
69317;SDS011;56457;52.190;4.440;2022-07-22T04:27:45;11.85;;;1.65;;
69317;SDS011;56457;52.190;4.440;2022-07-22T04:28:45;13.63;;;1.80;;
69317;SDS011;56457;52.190;4.440;2022-07-22T04:29:46;9.35;;;1.40;;
69317;SDS011;56457;52.190;4.440;2022-07-22T04:30:46;15.63;;;1.88;;
69317;SDS011;56457;52.190;4.440;2022-07-22T04:31:47;6.13;;;1.70;;
69317;SDS011;56457;52.190;4.440;2022-07-22T04:32:47;8.53;;;1.50;;
69317;SDS011;56457;52.190;4.440;2022-07-22T04:33:47;13.23;;;1.58;;
69317;SDS011;56457;52.190;4.440;2022-07-22T04:34:48;8.70;;;1.90;;
69317;SDS011;56457;52.190;4.440;2022-07-22T04:35:48;10.18;;;2.08;;
69317;SDS011;56457;52.190;4.440;2022-07-22T04:36:49;12.13;;;1.67;;
69317;SDS011;56457;52.190;4.440;2022-07-22T04:37:51;5.03;;;1.30;;
69317;SDS011;56457;52.190;4.440;2022-07-22T04:38:54;10.55;;;1.50;;
69317;SDS011;56457;52.190;4.440;2022-07-22T04:39:54;11.30;;;1.70;;
69317;SDS011;56457;52.190;4.440;2022-07-22T04:40:55;11.07;;;1.83;;
69317;SDS011;56457;52.190;4.440;2022-07-22T04:42:56;14.47;;;1.50;;
69317;SDS011;56457;52.190;4.440;2022-07-22T04:43:57;6.10;;;1.63;;
69317;SDS011;56457;52.190;4.440;2022-07-22T04:44:57;10.68;;;1.80;;
69317;SDS011;56457;52.190;4.440;2022-07-22T04:45:58;12.15;;;2.15;;
69317;SDS011;56457;52.190;4.440;2022-07-22T04:46:58;9.70;;;1.48;;
69317;SDS011;56457;52.190;4.440;2022-07-22T04:47:59;12.02;;;2.00;;
69317;SDS011;56457;52.190;4.440;2022-07-22T04:48:59;10.03;;;1.60;;
69317;SDS011;56457;52.190;4.440;2022-07-22T04:50:00;11.63;;;2.33;;
69317;SDS011;56457;52.190;4.440;2022-07-22T04:51:01;6.10;;;1.75;;
69317;SDS011;56457;52.190;4.440;2022-07-22T04:52:02;8.43;;;2.08;;
69317;SDS011;56457;52.190;4.440;2022-07-22T04:53:03;15.10;;;2.00;;
69317;SDS011;56457;52.190;4.440;2022-07-22T04:54:04;9.45;;;1.88;;
69317;SDS011;56457;52.190;4.440;2022-07-22T04:55:04;6.03;;;1.85;;
69317;SDS011;56457;52.190;4.440;2022-07-22T04:56:05;5.88;;;1.55;;
69317;SDS011;56457;52.190;4.440;2022-07-22T04:57:06;11.40;;;1.73;;
69317;SDS011;56457;52.190;4.440;2022-07-22T04:58:06;13.67;;;2.23;;
69317;SDS011;56457;52.190;4.440;2022-07-22T04:59:07;13.20;;;1.77;;
69317;SDS011;56457;52.190;4.440;2022-07-22T05:00:07;14.43;;;1.67;;
69317;SDS011;56457;52.190;4.440;2022-07-22T05:01:08;16.25;;;2.08;;
69317;SDS011;56457;52.190;4.440;2022-07-22T05:02:09;6.95;;;1.80;;
69317;SDS011;56457;52.190;4.440;2022-07-22T05:03:09;15.32;;;2.22;;
69317;SDS011;56457;52.190;4.440;2022-07-22T05:04:09;7.85;;;1.80;;
69317;SDS011;56457;52.190;4.440;2022-07-22T05:05:10;7.50;;;1.70;;
69317;SDS011;56457;52.190;4.440;2022-07-22T05:06:10;14.25;;;2.08;;
69317;SDS011;56457;52.190;4.440;2022-07-22T05:07:11;14.13;;;2.15;;
69317;SDS011;56457;52.190;4.440;2022-07-22T05:08:11;11.05;;;1.85;;
69317;SDS011;56457;52.190;4.440;2022-07-22T05:09:12;14.10;;;2.03;;
69317;SDS011;56457;52.190;4.440;2022-07-22T05:10:12;11.48;;;2.15;;
69317;SDS011;56457;52.190;4.440;2022-07-22T05:11:13;12.00;;;1.80;;
69317;SDS011;56457;52.190;4.440;2022-07-22T05:12:13;11.68;;;2.05;;
69317;SDS011;56457;52.190;4.440;2022-07-22T05:13:14;10.47;;;2.00;;
69317;SDS011;56457;52.190;4.440;2022-07-22T05:14:14;19.42;;;2.08;;
69317;SDS011;56457;52.190;4.440;2022-07-22T05:15:14;14.87;;;1.97;;
69317;SDS011;56457;52.190;4.440;2022-07-22T05:16:15;15.60;;;2.07;;
69317;SDS011;56457;52.190;4.440;2022-07-22T05:17:15;12.98;;;2.05;;
69317;SDS011;56457;52.190;4.440;2022-07-22T05:18:16;9.85;;;2.03;;
69317;SDS011;56457;52.190;4.440;2022-07-22T05:19:16;10.57;;;1.85;;
69317;SDS011;56457;52.190;4.440;2022-07-22T05:20:17;11.47;;;2.17;;
69317;SDS011;56457;52.190;4.440;2022-07-22T05:21:18;18.00;;;2.00;;
69317;SDS011;56457;52.190;4.440;2022-07-22T05:22:19;11.38;;;2.10;;
69317;SDS011;56457;52.190;4.440;2022-07-22T05:23:19;20.90;;;2.92;;
69317;SDS011;56457;52.190;4.440;2022-07-22T05:24:20;17.63;;;1.87;;
69317;SDS011;56457;52.190;4.440;2022-07-22T05:25:20;14.20;;;2.17;;
69317;SDS011;56457;52.190;4.440;2022-07-22T05:26:21;10.03;;;1.40;;
69317;SDS011;56457;52.190;4.440;2022-07-22T05:27:21;17.88;;;2.35;;
69317;SDS011;56457;52.190;4.440;2022-07-22T05:28:21;12.57;;;2.33;;
69317;SDS011;56457;52.190;4.440;2022-07-22T05:29:22;9.90;;;1.98;;
69317;SDS011;56457;52.190;4.440;2022-07-22T05:30:22;10.95;;;1.80;;
69317;SDS011;56457;52.190;4.440;2022-07-22T05:31:23;24.13;;;3.10;;
69317;SDS011;56457;52.190;4.440;2022-07-22T05:32:24;12.73;;;2.60;;
69317;SDS011;56457;52.190;4.440;2022-07-22T05:33:24;14.60;;;3.13;;
69317;SDS011;56457;52.190;4.440;2022-07-22T05:34:25;18.83;;;2.90;;
69317;SDS011;56457;52.190;4.440;2022-07-22T05:35:26;16.15;;;2.63;;
69317;SDS011;56457;52.190;4.440;2022-07-22T05:37:27;14.00;;;2.30;;
69317;SDS011;56457;52.190;4.440;2022-07-22T05:38:28;13.03;;;1.83;;
69317;SDS011;56457;52.190;4.440;2022-07-22T05:39:28;22.30;;;2.83;;
69317;SDS011;56457;52.190;4.440;2022-07-22T05:40:29;14.90;;;2.28;;
69317;SDS011;56457;52.190;4.440;2022-07-22T05:41:29;17.83;;;2.50;;
69317;SDS011;56457;52.190;4.440;2022-07-22T05:42:30;11.93;;;2.42;;
69317;SDS011;56457;52.190;4.440;2022-07-22T05:43:30;23.17;;;2.53;;
69317;SDS011;56457;52.190;4.440;2022-07-22T05:44:30;17.30;;;2.38;;
69317;SDS011;56457;52.190;4.440;2022-07-22T05:45:31;16.60;;;1.75;;
69317;SDS011;56457;52.190;4.440;2022-07-22T05:46:31;16.67;;;2.95;;
69317;SDS011;56457;52.190;4.440;2022-07-22T05:47:32;12.82;;;2.15;;
69317;SDS011;56457;52.190;4.440;2022-07-22T05:48:32;11.18;;;2.03;;
69317;SDS011;56457;52.190;4.440;2022-07-22T05:49:34;10.82;;;2.40;;
69317;SDS011;56457;52.190;4.440;2022-07-22T05:50:35;18.70;;;2.27;;
69317;SDS011;56457;52.190;4.440;2022-07-22T05:51:36;11.15;;;2.08;;
69317;SDS011;56457;52.190;4.440;2022-07-22T05:52:36;13.73;;;2.47;;
69317;SDS011;56457;52.190;4.440;2022-07-22T05:53:39;13.20;;;2.35;;
69317;SDS011;56457;52.190;4.440;2022-07-22T05:54:40;10.23;;;2.70;;
69317;SDS011;56457;52.190;4.440;2022-07-22T05:55:41;17.42;;;2.55;;
69317;SDS011;56457;52.190;4.440;2022-07-22T05:56:41;17.25;;;2.55;;
69317;SDS011;56457;52.190;4.440;2022-07-22T05:57:41;11.77;;;2.30;;
69317;SDS011;56457;52.190;4.440;2022-07-22T05:58:42;18.37;;;2.20;;
69317;SDS011;56457;52.190;4.440;2022-07-22T05:59:43;14.48;;;2.47;;
69317;SDS011;56457;52.190;4.440;2022-07-22T06:00:43;13.07;;;2.67;;
69317;SDS011;56457;52.190;4.440;2022-07-22T06:01:44;15.85;;;2.60;;
69317;SDS011;56457;52.190;4.440;2022-07-22T06:02:44;15.68;;;2.22;;
69317;SDS011;56457;52.190;4.440;2022-07-22T06:03:45;11.05;;;2.20;;
69317;SDS011;56457;52.190;4.440;2022-07-22T06:04:45;9.50;;;2.15;;
69317;SDS011;56457;52.190;4.440;2022-07-22T06:05:46;13.30;;;1.77;;
69317;SDS011;56457;52.190;4.440;2022-07-22T06:06:46;14.13;;;2.30;;
69317;SDS011;56457;52.190;4.440;2022-07-22T06:07:46;11.38;;;1.50;;
69317;SDS011;56457;52.190;4.440;2022-07-22T06:08:47;7.43;;;1.60;;
69317;SDS011;56457;52.190;4.440;2022-07-22T06:09:47;9.70;;;1.55;;